createdAt,value
2018-01-24T00:00:48.647Z,0
2018-01-24T00:01:58.626Z,0
2018-01-24T00:03:08.342Z,0
2018-01-24T00:04:18.062Z,0
2018-01-24T00:05:28.041Z,0
2018-01-24T00:06:38.018Z,0
2018-01-24T00:07:48.005Z,0
2018-01-24T00:08:57.994Z,0
2018-01-24T00:10:07.718Z,0
2018-01-24T00:11:17.703Z,0
2018-01-24T00:12:27.693Z,0
2018-01-24T00:13:37.675Z,0
2018-01-24T00:14:47.395Z,0
2018-01-24T00:15:57.381Z,0
2018-01-24T00:17:06.583Z,0
2018-01-24T00:18:16.563Z,0
2018-01-24T00:19:26.341Z,0
2018-01-24T00:20:36.324Z,0
2018-01-24T00:21:46.303Z,0
2018-01-24T00:22:56.016Z,0
2018-01-24T00:24:05.993Z,0
2018-01-24T00:25:15.718Z,0
2018-01-24T00:26:25.436Z,0
2018-01-24T00:27:35.421Z,0
2018-01-24T00:28:45.137Z,0
2018-01-24T00:29:54.857Z,0
2018-01-24T00:31:04.577Z,0
2018-01-24T00:32:14.569Z,0
2018-01-24T00:33:24.651Z,0
2018-01-24T00:34:34.639Z,0
2018-01-24T00:35:44.619Z,0
2018-01-24T00:36:54.618Z,0
2018-01-24T00:38:04.076Z,0
2018-01-24T00:39:13.843Z,0
2018-01-24T00:40:23.880Z,0
2018-01-24T00:41:33.609Z,0
2018-01-24T00:42:43.063Z,0
2018-01-24T00:43:53.046Z,0
2018-01-24T00:45:03.027Z,0
2018-01-24T00:46:12.486Z,0
2018-01-24T00:47:22.202Z,0
2018-01-24T00:48:32.188Z,0
2018-01-24T00:49:42.171Z,0
2018-01-24T00:50:52.151Z,0
2018-01-24T00:52:01.866Z,0
2018-01-24T00:53:11.847Z,0
2018-01-24T00:54:21.565Z,0
2018-01-24T00:55:31.544Z,0
2018-01-24T00:56:41.599Z,0
2018-01-24T00:57:51.581Z,0
2018-01-24T00:59:01.038Z,0
2018-01-24T01:00:09.697Z,0
2018-01-24T01:01:19.682Z,0
2018-01-24T01:02:29.669Z,0
2018-01-24T01:03:39.657Z,0
2018-01-24T01:04:49.635Z,0
2018-01-24T01:05:59.351Z,0
2018-01-24T01:07:09.341Z,0
2018-01-24T01:08:19.423Z,0
2018-01-24T01:09:29.190Z,0
2018-01-24T01:10:38.909Z,0
2018-01-24T01:11:48.895Z,0
2018-01-24T01:12:58.349Z,0
2018-01-24T01:14:08.113Z,0
2018-01-24T01:15:18.105Z,0
2018-01-24T01:16:27.854Z,0
2018-01-24T01:17:37.571Z,0
2018-01-24T01:18:47.546Z,0
2018-01-24T01:19:57.265Z,0
2018-01-24T01:21:06.719Z,0
2018-01-24T01:22:16.702Z,0
2018-01-24T01:23:26.690Z,0
2018-01-24T01:24:36.146Z,0
2018-01-24T01:25:46.239Z,0
2018-01-24T01:26:56.223Z,0
2018-01-24T01:28:06.210Z,0
2018-01-24T01:29:15.934Z,0
2018-01-24T01:30:25.923Z,0
2018-01-24T01:31:35.639Z,0
2018-01-24T01:32:45.358Z,0
2018-01-24T01:33:55.079Z,0
2018-01-24T01:35:05.074Z,0
2018-01-24T01:36:15.068Z,0
2018-01-24T01:37:25.048Z,0
2018-01-24T01:38:35.028Z,0
2018-01-24T01:39:45.010Z,0
2018-01-24T01:40:54.728Z,0
2018-01-24T01:42:04.446Z,0
2018-01-24T01:43:13.898Z,0
2018-01-24T01:44:23.614Z,0
2018-01-24T01:45:33.627Z,0
2018-01-24T01:46:43.617Z,0
2018-01-24T01:47:53.608Z,0
2018-01-24T01:49:03.329Z,0
2018-01-24T01:50:13.361Z,0
2018-01-24T01:51:23.079Z,0
2018-01-24T01:52:33.071Z,0
2018-01-24T01:53:43.053Z,0
2018-01-24T01:54:53.088Z,0
2018-01-24T01:56:02.855Z,0
2018-01-24T01:57:12.578Z,0
2018-01-24T01:58:22.557Z,0
2018-01-24T01:59:32.282Z,0
2018-01-24T02:00:41.735Z,0
2018-01-24T02:01:51.716Z,0
2018-01-24T02:03:01.706Z,0
2018-01-24T02:04:11.160Z,0
2018-01-24T02:05:21.167Z,0
2018-01-24T02:06:30.886Z,0
2018-01-24T02:07:40.867Z,0
2018-01-24T02:08:50.594Z,0
2018-01-24T02:10:00.311Z,0
2018-01-24T02:11:10.028Z,0
2018-01-24T02:12:20.063Z,0
2018-01-24T02:13:30.040Z,0
2018-01-24T02:14:40.052Z,0
2018-01-24T02:15:49.771Z,0
2018-01-24T02:16:59.770Z,0
2018-01-24T02:18:09.761Z,0
2018-01-24T02:19:19.747Z,0
2018-01-24T02:20:29.464Z,0
2018-01-24T02:21:39.182Z,0
2018-01-24T02:22:49.172Z,0
2018-01-24T02:23:59.158Z,0
2018-01-24T02:25:09.141Z,0
2018-01-24T02:26:19.127Z,0
2018-01-24T02:27:29.109Z,0
2018-01-24T02:28:39.090Z,0
2018-01-24T02:29:48.546Z,0
2018-01-24T02:30:58.536Z,0
2018-01-24T02:32:07.772Z,0
2018-01-24T02:33:17.495Z,0
2018-01-24T02:34:27.482Z,0
2018-01-24T02:35:37.471Z,0
2018-01-24T02:36:47.456Z,0
2018-01-24T02:37:57.442Z,0
2018-01-24T02:39:07.166Z,0
2018-01-24T02:40:17.171Z,0
2018-01-24T02:41:26.945Z,0
2018-01-24T02:42:36.929Z,0
2018-01-24T02:43:46.932Z,0
2018-01-24T02:44:56.659Z,0
2018-01-24T02:46:05.906Z,0
2018-01-24T02:47:15.364Z,0
2018-01-24T02:48:25.362Z,0
2018-01-24T02:49:35.425Z,0
2018-01-24T02:50:45.413Z,0
2018-01-24T02:51:55.142Z,0
2018-01-24T02:53:04.331Z,0
2018-01-24T02:54:14.057Z,0
2018-01-24T02:55:23.792Z,0
2018-01-24T02:56:33.778Z,0
2018-01-24T02:57:43.233Z,0
2018-01-24T02:58:53.287Z,0
2018-01-24T03:00:03.002Z,0
2018-01-24T03:01:12.456Z,0
2018-01-24T03:02:22.437Z,0
2018-01-24T03:03:32.425Z,0
2018-01-24T03:04:41.877Z,0
2018-01-24T03:05:51.596Z,0
2018-01-24T03:07:01.311Z,0
2018-01-24T03:08:10.765Z,0
2018-01-24T03:09:20.220Z,0
2018-01-24T03:10:29.676Z,0
2018-01-24T03:11:39.654Z,0
2018-01-24T03:12:49.634Z,0
2018-01-24T03:13:59.613Z,0
2018-01-24T03:15:09.105Z,0
2018-01-24T03:16:19.136Z,0
2018-01-24T03:17:29.130Z,0
2018-01-24T03:18:39.120Z,0
2018-01-24T03:19:49.110Z,0
2018-01-24T03:20:59.090Z,0
2018-01-24T03:22:08.810Z,0
2018-01-24T03:23:18.526Z,0
2018-01-24T03:24:28.506Z,0
2018-01-24T03:25:38.223Z,0
2018-01-24T03:26:48.206Z,0
2018-01-24T03:27:58.196Z,0
2018-01-24T03:29:07.912Z,0
2018-01-24T03:30:17.900Z,0
2018-01-24T03:31:27.622Z,0
2018-01-24T03:32:37.614Z,0
2018-01-24T03:33:47.334Z,0
2018-01-24T03:34:57.050Z,0
2018-01-24T03:36:07.024Z,0
2018-01-24T03:37:17.013Z,0
2018-01-24T03:38:26.725Z,0
2018-01-24T03:39:36.444Z,0
2018-01-24T03:40:46.424Z,0
2018-01-24T03:41:56.412Z,0
2018-01-24T03:43:06.390Z,0
2018-01-24T03:44:16.375Z,0
2018-01-24T03:45:26.359Z,0
2018-01-24T03:46:36.090Z,0
2018-01-24T03:47:46.073Z,0
2018-01-24T03:48:56.052Z,0
2018-01-24T03:50:05.503Z,0
2018-01-24T03:51:15.220Z,0
2018-01-24T03:52:25.199Z,0
2018-01-24T03:53:34.966Z,0
2018-01-24T03:54:44.701Z,0
2018-01-24T03:55:54.686Z,0
2018-01-24T03:57:04.243Z,0
2018-01-24T03:58:14.247Z,0
2018-01-24T03:59:23.966Z,0
2018-01-24T04:03:26.450Z,0
2018-01-24T04:04:36.430Z,0
2018-01-24T04:05:46.146Z,0
2018-01-24T04:06:56.134Z,0
2018-01-24T04:08:06.119Z,0
2018-01-24T04:09:15.308Z,0
2018-01-24T04:10:25.042Z,0
2018-01-24T04:11:34.758Z,0
2018-01-24T04:12:44.743Z,0
2018-01-24T04:13:54.731Z,0
2018-01-24T04:15:04.184Z,0
2018-01-24T04:16:14.170Z,0
2018-01-24T04:17:24.148Z,0
2018-01-24T04:18:34.132Z,0
2018-01-24T04:19:43.851Z,0
2018-01-24T04:20:53.830Z,0
2018-01-24T04:22:03.546Z,0
2018-01-24T04:23:13.015Z,0
2018-01-24T04:24:22.463Z,0
2018-01-24T04:25:31.917Z,0
2018-01-24T04:26:41.897Z,0
2018-01-24T04:27:51.935Z,0
2018-01-24T04:29:01.653Z,0
2018-01-24T04:30:10.839Z,0
2018-01-24T04:31:20.291Z,0
2018-01-24T04:32:30.327Z,0
2018-01-24T04:33:40.314Z,0
2018-01-24T04:34:50.296Z,0
2018-01-24T04:36:00.275Z,0
2018-01-24T04:37:09.991Z,0
2018-01-24T04:38:19.994Z,0
2018-01-24T04:39:29.443Z,0
2018-01-24T04:40:39.424Z,0
2018-01-24T04:41:49.407Z,0
2018-01-24T04:42:59.387Z,0
2018-01-24T04:44:09.145Z,0
2018-01-24T04:45:18.866Z,0
2018-01-24T04:46:28.317Z,0
2018-01-24T04:47:38.294Z,0
2018-01-24T04:48:48.276Z,0
2018-01-24T04:49:58.358Z,0
2018-01-24T04:51:07.829Z,0
2018-01-24T04:52:17.808Z,0
2018-01-24T04:53:27.527Z,0
2018-01-24T04:54:37.506Z,0
2018-01-24T04:55:46.957Z,0
2018-01-24T04:56:56.939Z,0
2018-01-24T04:58:06.387Z,0
2018-01-24T04:59:16.104Z,0
2018-01-24T05:00:25.816Z,0
2018-01-24T05:01:35.533Z,0
2018-01-24T05:02:45.515Z,4
2018-01-24T05:03:55.492Z,0
2018-01-24T05:05:04.944Z,0
2018-01-24T05:06:14.925Z,0
2018-01-24T05:07:24.906Z,0
2018-01-24T05:08:34.625Z,0
2018-01-24T05:09:44.606Z,0
2018-01-24T05:10:54.646Z,0
2018-01-24T05:12:04.362Z,0
2018-01-24T05:13:14.437Z,0
2018-01-24T05:14:23.890Z,0
2018-01-24T05:15:33.875Z,0
2018-01-24T05:16:43.855Z,0
2018-01-24T05:17:53.842Z,0
2018-01-24T05:19:03.825Z,0
2018-01-24T05:20:13.282Z,0
2018-01-24T05:21:23.257Z,0
2018-01-24T05:22:32.709Z,0
2018-01-24T05:23:42.425Z,0
2018-01-24T05:24:52.193Z,0
2018-01-24T05:26:02.175Z,0
2018-01-24T05:27:12.160Z,0
2018-01-24T05:28:22.146Z,0
2018-01-24T05:29:32.130Z,0
2018-01-24T05:30:42.110Z,0
2018-01-24T05:31:51.832Z,0
2018-01-24T05:33:01.546Z,0
2018-01-24T05:34:11.259Z,0
2018-01-24T05:35:21.242Z,0
2018-01-24T05:36:31.279Z,0
2018-01-24T05:37:41.263Z,0
2018-01-24T05:38:50.980Z,0
2018-01-24T05:40:00.699Z,0
2018-01-24T05:41:09.622Z,0
2018-01-24T05:42:19.609Z,0
2018-01-24T05:43:29.596Z,0
2018-01-24T05:44:39.579Z,0
2018-01-24T05:45:49.295Z,0
2018-01-24T05:46:59.008Z,0
2018-01-24T05:48:09.000Z,0
2018-01-24T05:49:19.029Z,0
2018-01-24T05:50:29.021Z,0
2018-01-24T05:51:39.002Z,0
2018-01-24T05:52:48.984Z,0
2018-01-24T05:53:58.969Z,0
2018-01-24T05:55:08.426Z,0
2018-01-24T05:56:18.406Z,0
2018-01-24T05:57:28.390Z,0
2018-01-24T05:58:38.378Z,0
2018-01-24T05:59:48.359Z,0
2018-01-24T06:00:58.342Z,0
2018-01-24T06:02:07.795Z,0
2018-01-24T06:03:17.792Z,0
2018-01-24T06:04:27.510Z,0
2018-01-24T06:05:37.226Z,0
2018-01-24T06:06:47.208Z,0
2018-01-24T06:07:57.187Z,0
2018-01-24T06:09:06.639Z,0
2018-01-24T06:10:16.618Z,0
2018-01-24T06:11:26.609Z,0
2018-01-24T06:12:36.591Z,0
2018-01-24T06:13:46.577Z,0
2018-01-24T06:14:56.561Z,0
2018-01-24T06:16:06.013Z,0
2018-01-24T06:17:15.732Z,0
2018-01-24T06:18:25.832Z,0
2018-01-24T06:19:35.813Z,0
2018-01-24T06:20:45.796Z,0
2018-01-24T06:21:55.780Z,0
2018-01-24T06:23:05.503Z,0
2018-01-24T06:24:15.489Z,0
2018-01-24T06:25:25.215Z,0
2018-01-24T06:26:35.252Z,0
2018-01-24T06:27:45.248Z,0
2018-01-24T06:28:55.235Z,0
2018-01-24T06:30:04.690Z,0
2018-01-24T06:31:14.408Z,0
2018-01-24T06:32:24.236Z,0
2018-01-24T06:33:34.216Z,0
2018-01-24T06:34:43.667Z,0
2018-01-24T06:35:53.648Z,0
2018-01-24T06:37:03.362Z,0
2018-01-24T06:38:13.079Z,0
2018-01-24T06:39:22.796Z,0
2018-01-24T06:40:32.790Z,0
2018-01-24T06:41:42.771Z,0
2018-01-24T06:42:52.748Z,0
2018-01-24T06:44:02.469Z,0
2018-01-24T06:45:12.449Z,0
2018-01-24T06:46:22.218Z,0
2018-01-24T06:47:31.933Z,0
2018-01-24T06:48:41.656Z,0
2018-01-24T06:49:51.639Z,0
2018-01-24T06:51:01.088Z,0
2018-01-24T06:52:10.812Z,0
2018-01-24T06:53:20.797Z,0
2018-01-24T06:54:30.814Z,0
2018-01-24T06:55:40.574Z,0
2018-01-24T06:56:50.293Z,0
2018-01-24T06:58:00.011Z,0
2018-01-24T06:59:09.728Z,0
2018-01-24T07:00:19.183Z,0
2018-01-24T07:01:28.898Z,0
2018-01-24T07:02:38.882Z,0
2018-01-24T07:03:48.859Z,0
2018-01-24T07:04:58.844Z,4
2018-01-24T07:06:08.298Z,4
2018-01-24T07:07:18.276Z,0
2018-01-24T07:08:28.256Z,4
2018-01-24T07:09:38.264Z,4
2018-01-24T07:10:48.247Z,0
2018-01-24T07:11:57.962Z,4
2018-01-24T07:13:07.679Z,4
2018-01-24T07:14:16.867Z,8
2018-01-24T07:15:26.311Z,8
2018-01-24T07:16:36.373Z,8
2018-01-24T07:17:46.353Z,8
2018-01-24T07:18:56.332Z,12
2018-01-24T07:20:06.310Z,12
2018-01-24T07:21:15.769Z,16
2018-01-24T07:22:25.498Z,16
2018-01-24T07:23:34.947Z,20
2018-01-24T07:24:44.395Z,20
2018-01-24T07:25:54.435Z,24
2018-01-24T07:27:04.521Z,28
2018-01-24T07:28:14.497Z,36
2018-01-24T07:29:24.479Z,36
2018-01-24T07:30:34.191Z,40
2018-01-24T07:31:43.643Z,48
2018-01-24T07:32:53.625Z,52
2018-01-24T07:34:03.617Z,60
2018-01-24T07:35:13.750Z,68
2018-01-24T07:36:23.840Z,76
2018-01-24T07:37:33.824Z,84
2018-01-24T07:38:43.904Z,96
2018-01-24T07:39:53.940Z,108
2018-01-24T07:41:03.663Z,116
2018-01-24T07:42:13.389Z,128
2018-01-24T07:43:23.369Z,140
2018-01-24T07:44:33.132Z,156
2018-01-24T07:45:43.111Z,168
2018-01-24T07:46:52.828Z,184
2018-01-24T07:48:02.817Z,200
2018-01-24T07:49:12.531Z,216
2018-01-24T07:50:22.618Z,236
2018-01-24T07:51:32.599Z,252
2018-01-24T07:52:42.410Z,272
2018-01-24T07:53:52.392Z,292
2018-01-24T07:55:02.373Z,308
2018-01-24T07:56:12.097Z,324
2018-01-24T07:57:22.088Z,340
2018-01-24T07:58:32.072Z,356
2018-01-24T07:59:42.047Z,372
2018-01-24T08:00:52.032Z,392
2018-01-24T08:02:02.022Z,408
2018-01-24T08:03:12.025Z,432
2018-01-24T08:04:21.791Z,456
2018-01-24T08:05:31.514Z,476
2018-01-24T08:06:41.514Z,508
2018-01-24T08:07:51.232Z,536
2018-01-24T08:09:01.223Z,560
2018-01-24T08:10:11.205Z,576
2018-01-24T08:11:20.928Z,600
2018-01-24T08:12:30.916Z,624
2018-01-24T08:13:40.897Z,644
2018-01-24T08:14:50.616Z,672
2018-01-24T08:16:00.599Z,708
2018-01-24T08:17:10.316Z,740
2018-01-24T08:18:20.036Z,776
2018-01-24T08:19:29.754Z,796
2018-01-24T08:20:39.734Z,804
2018-01-24T08:21:49.442Z,816
2018-01-24T08:22:59.156Z,820
2018-01-24T08:24:08.609Z,832
2018-01-24T08:25:18.593Z,856
2018-01-24T08:26:28.315Z,876
2018-01-24T08:27:38.031Z,900
2018-01-24T08:28:47.754Z,924
2018-01-24T08:29:57.744Z,948
2018-01-24T08:31:07.084Z,972
2018-01-24T08:32:16.545Z,996
2018-01-24T08:33:26.524Z,1028
2018-01-24T08:34:35.977Z,1056
2018-01-24T08:35:45.960Z,1088
2018-01-24T08:36:55.944Z,1124
2018-01-24T08:38:05.746Z,1168
2018-01-24T08:39:15.153Z,1212
2018-01-24T08:40:24.880Z,1264
2018-01-24T08:41:34.601Z,1312
2018-01-24T08:42:44.634Z,1356
2018-01-24T08:43:54.170Z,1396
2018-01-24T08:45:03.953Z,1424
2018-01-24T08:46:13.668Z,1456
2018-01-24T08:47:23.651Z,1504
2018-01-24T08:48:33.741Z,1564
2018-01-24T08:49:43.731Z,1628
2018-01-24T08:50:53.446Z,1700
2018-01-24T08:52:03.165Z,1772
2018-01-24T08:53:12.888Z,1848
2018-01-24T08:54:22.922Z,1920
2018-01-24T08:55:32.643Z,2000
2018-01-24T08:56:42.630Z,2072
2018-01-24T08:57:52.621Z,2156
2018-01-24T08:59:02.607Z,2244
2018-01-24T09:00:12.596Z,2332
2018-01-24T09:01:22.585Z,2416
2018-01-24T09:02:32.303Z,2520
2018-01-24T09:03:42.281Z,2640
2018-01-24T09:04:52.004Z,2708
2018-01-24T09:06:01.511Z,2788
2018-01-24T09:07:11.229Z,2812
2018-01-24T09:08:21.210Z,2796
2018-01-24T09:09:31.195Z,2788
2018-01-24T09:10:40.914Z,2824
2018-01-24T09:11:50.742Z,2856
2018-01-24T09:13:00.723Z,2880
2018-01-24T09:14:10.456Z,2892
2018-01-24T09:15:20.485Z,2916
2018-01-24T09:16:30.479Z,2944
2018-01-24T09:17:40.259Z,2980
2018-01-24T09:18:50.272Z,3020
2018-01-24T09:20:00.263Z,3052
2018-01-24T09:21:09.977Z,3076
2018-01-24T09:22:19.961Z,3108
2018-01-24T09:23:29.958Z,3140
2018-01-24T09:24:39.412Z,3176
2018-01-24T09:25:49.392Z,3208
2018-01-24T09:26:59.412Z,3228
2018-01-24T09:28:08.864Z,3244
2018-01-24T09:29:18.858Z,3244
2018-01-24T09:30:28.849Z,3244
2018-01-24T09:31:38.828Z,3244
2018-01-24T09:32:48.282Z,3256
2018-01-24T09:33:58.279Z,3284
2018-01-24T09:35:07.735Z,3320
2018-01-24T09:36:17.724Z,3352
2018-01-24T09:37:27.702Z,3372
2018-01-24T09:38:37.681Z,3400
2018-01-24T09:39:47.404Z,3408
2018-01-24T09:40:57.127Z,3432
2018-01-24T09:42:07.108Z,3456
2018-01-24T09:43:16.562Z,3476
2018-01-24T09:44:25.752Z,3492
2018-01-24T09:45:35.741Z,3504
2018-01-24T09:46:45.467Z,3504
2018-01-24T09:47:55.185Z,3480
2018-01-24T09:49:04.908Z,3444
2018-01-24T09:50:14.928Z,3396
2018-01-24T09:51:24.653Z,3336
2018-01-24T09:52:34.374Z,3272
2018-01-24T09:53:44.103Z,3200
2018-01-24T09:54:53.558Z,3136
2018-01-24T09:56:03.279Z,3068
2018-01-24T09:57:12.995Z,3000
2018-01-24T09:58:22.964Z,2948
2018-01-24T09:59:32.679Z,2904
2018-01-24T10:00:42.671Z,2868
2018-01-24T10:01:52.653Z,2828
2018-01-24T10:03:02.376Z,2788
2018-01-24T10:04:12.230Z,2760
2018-01-24T10:05:21.940Z,2748
2018-01-24T10:06:31.923Z,2740
2018-01-24T10:07:41.959Z,2728
2018-01-24T10:08:51.966Z,2700
2018-01-24T10:10:01.689Z,2668
2018-01-24T10:11:11.147Z,2636
2018-01-24T10:12:21.129Z,2620
2018-01-24T10:13:31.120Z,2640
2018-01-24T10:14:41.105Z,2692
2018-01-24T10:15:51.081Z,2768
2018-01-24T10:17:01.066Z,2828
2018-01-24T10:18:10.840Z,2856
2018-01-24T10:19:20.827Z,2860
2018-01-24T10:20:30.812Z,2852
2018-01-24T10:21:40.797Z,2820
2018-01-24T10:22:50.519Z,2764
2018-01-24T10:24:00.506Z,2664
2018-01-24T10:25:09.784Z,2524
2018-01-24T10:26:19.504Z,2364
2018-01-24T10:27:29.217Z,2244
2018-01-24T10:28:38.690Z,2188
2018-01-24T10:29:48.411Z,2188
2018-01-24T10:30:58.397Z,2204
2018-01-24T10:32:08.166Z,2216
2018-01-24T10:33:17.885Z,2216
2018-01-24T10:34:27.605Z,2212
2018-01-24T10:35:37.597Z,2232
2018-01-24T10:36:47.584Z,2268
2018-01-24T10:37:57.299Z,2276
2018-01-24T10:39:07.019Z,2272
2018-01-24T10:40:16.522Z,2248
2018-01-24T10:41:26.505Z,2224
2018-01-24T10:42:36.224Z,2188
2018-01-24T10:43:45.941Z,2136
2018-01-24T10:44:56.072Z,2084
2018-01-24T10:46:05.525Z,2068
2018-01-24T10:47:15.239Z,2092
2018-01-24T10:48:25.233Z,2128
2018-01-24T10:49:35.222Z,2136
2018-01-24T10:50:45.030Z,2112
2018-01-24T10:51:55.011Z,2072
2018-01-24T10:53:04.737Z,2028
2018-01-24T10:54:14.725Z,2008
2018-01-24T10:55:24.447Z,2052
2018-01-24T10:56:34.424Z,2116
2018-01-24T10:57:44.406Z,2184
2018-01-24T10:58:54.127Z,2224
2018-01-24T11:00:04.112Z,2192
2018-01-24T11:01:14.098Z,2108
2018-01-24T11:02:24.088Z,2020
2018-01-24T11:03:33.539Z,1976
2018-01-24T11:04:43.526Z,1948
2018-01-24T11:05:53.537Z,1908
2018-01-24T11:07:03.518Z,1844
2018-01-24T11:08:13.233Z,1808
2018-01-24T11:09:23.217Z,1832
2018-01-24T11:10:33.202Z,1904
2018-01-24T11:11:42.925Z,1996
2018-01-24T11:12:52.911Z,2068
2018-01-24T11:14:02.466Z,2096
2018-01-24T11:15:12.480Z,2100
2018-01-24T11:16:21.939Z,2024
2018-01-24T11:17:31.660Z,1992
2018-01-24T11:18:41.118Z,1996
2018-01-24T11:19:50.889Z,1992
2018-01-24T11:21:00.880Z,1992
2018-01-24T11:22:10.602Z,1992
2018-01-24T11:23:20.323Z,2000
2018-01-24T11:24:29.551Z,1988
2018-01-24T11:25:39.585Z,1920
2018-01-24T11:26:49.579Z,1812
2018-01-24T11:27:59.295Z,1700
2018-01-24T11:29:08.748Z,1660
2018-01-24T11:30:18.733Z,1640
2018-01-24T11:31:28.725Z,1676
2018-01-24T11:32:38.457Z,1684
2018-01-24T11:33:47.918Z,1660
2018-01-24T11:34:57.922Z,1664
2018-01-24T11:36:07.670Z,1688
2018-01-24T11:37:19.106Z,1676
2018-01-24T11:38:29.088Z,1660
2018-01-24T11:39:39.118Z,1628
2018-01-24T11:40:48.833Z,1596
2018-01-24T11:41:58.550Z,1584
2018-01-24T11:43:08.283Z,1580
2018-01-24T11:44:18.006Z,1572
2018-01-24T11:45:27.732Z,1576
2018-01-24T11:46:37.197Z,1568
2018-01-24T11:47:47.180Z,1552
2018-01-24T11:48:57.010Z,1540
2018-01-24T11:50:06.748Z,1528
2018-01-24T11:51:16.730Z,1508
2018-01-24T11:52:26.454Z,1468
2018-01-24T11:53:36.437Z,1460
2018-01-24T11:54:46.525Z,1492
2018-01-24T11:55:56.254Z,1508
2018-01-24T11:57:05.453Z,1520
2018-01-24T11:58:15.180Z,1504
2018-01-24T11:59:24.900Z,1420
2018-01-24T12:00:34.887Z,1400
2018-01-24T12:01:44.872Z,1428
2018-01-24T12:02:54.615Z,1468
2018-01-24T12:04:04.605Z,1492
2018-01-24T12:05:13.794Z,1468
2018-01-24T12:06:24.216Z,1444
2018-01-24T12:07:34.249Z,1464
2018-01-24T12:08:43.972Z,1464
2018-01-24T12:09:53.692Z,1412
2018-01-24T12:11:03.151Z,1408
2018-01-24T12:12:12.657Z,1472
2018-01-24T12:13:22.376Z,1568
2018-01-24T12:14:32.111Z,1664
2018-01-24T12:15:42.097Z,1720
2018-01-24T12:16:52.084Z,1736
2018-01-24T12:18:02.120Z,1784
2018-01-24T12:19:11.879Z,1832
2018-01-24T12:20:21.645Z,1784
2018-01-24T12:21:31.639Z,1692
2018-01-24T12:22:41.361Z,1648
2018-01-24T12:23:50.863Z,1628
2018-01-24T12:25:00.585Z,1552
2018-01-24T12:26:10.040Z,1456
2018-01-24T12:27:20.024Z,1412
2018-01-24T12:28:30.006Z,1384
2018-01-24T12:29:39.828Z,1364
2018-01-24T12:30:49.553Z,1316
2018-01-24T12:31:59.538Z,1284
2018-01-24T12:33:09.260Z,1268
2018-01-24T12:34:18.988Z,1248
2018-01-24T12:35:29.073Z,1224
2018-01-24T12:36:39.069Z,1208
2018-01-24T12:37:49.052Z,1224
2018-01-24T12:38:59.042Z,1280
2018-01-24T12:40:08.776Z,1380
2018-01-24T12:41:18.807Z,1424
2018-01-24T12:42:28.786Z,1380
2018-01-24T12:43:38.509Z,1340
2018-01-24T12:44:48.014Z,1328
2018-01-24T12:45:57.733Z,1328
2018-01-24T12:47:07.508Z,1336
2018-01-24T12:48:17.232Z,1400
2018-01-24T12:49:26.968Z,1480
2018-01-24T12:50:36.961Z,1636
2018-01-24T12:51:46.679Z,1840
2018-01-24T12:52:56.445Z,1992
2018-01-24T12:54:05.903Z,2128
2018-01-24T12:55:15.885Z,2320
2018-01-24T12:56:25.871Z,2404
2018-01-24T12:57:35.858Z,2356
2018-01-24T12:58:45.890Z,2200
2018-01-24T12:59:55.884Z,2212
2018-01-24T13:01:05.391Z,2364
2018-01-24T13:02:15.109Z,2424
2018-01-24T13:03:24.839Z,2240
2018-01-24T13:04:34.927Z,2004
2018-01-24T13:05:44.936Z,1760
2018-01-24T13:06:54.664Z,1612
2018-01-24T13:08:04.564Z,1452
2018-01-24T13:09:14.289Z,1348
2018-01-24T13:10:24.060Z,1336
2018-01-24T13:11:34.045Z,1348
2018-01-24T13:12:43.790Z,1320
2018-01-24T13:13:53.512Z,1352
2018-01-24T13:15:03.502Z,1304
2018-01-24T13:16:13.004Z,1364
2018-01-24T13:17:22.990Z,1256
2018-01-24T13:18:33.035Z,1216
2018-01-24T13:19:43.065Z,1244
2018-01-24T13:20:53.050Z,1156
2018-01-24T13:22:03.090Z,1152
2018-01-24T13:23:12.814Z,1188
2018-01-24T13:24:22.809Z,1216
2018-01-24T13:25:32.791Z,1284
2018-01-24T13:26:42.832Z,1484
2018-01-24T13:27:52.875Z,1596
2018-01-24T13:29:02.858Z,1540
2018-01-24T13:30:12.581Z,1564
2018-01-24T13:31:22.559Z,1764
2018-01-24T13:32:32.544Z,1796
2018-01-24T13:33:42.365Z,1700
2018-01-24T13:34:51.819Z,1660
2018-01-24T13:36:01.276Z,1612
2018-01-24T13:37:11.266Z,1716
2018-01-24T13:38:21.284Z,1660
2018-01-24T13:39:31.116Z,1632
2018-01-24T13:40:41.108Z,1636
2018-01-24T13:41:50.827Z,1480
2018-01-24T13:43:00.807Z,1308
2018-01-24T13:44:10.261Z,1240
2018-01-24T13:45:20.029Z,1036
2018-01-24T13:46:29.746Z,956
2018-01-24T13:47:39.462Z,928
2018-01-24T13:48:49.451Z,1016
2018-01-24T13:49:59.434Z,872
2018-01-24T13:51:09.452Z,848
2018-01-24T13:52:19.436Z,888
2018-01-24T13:53:29.416Z,1004
2018-01-24T13:54:39.404Z,1136
2018-01-24T13:55:49.121Z,1320
2018-01-24T13:56:59.101Z,1436
2018-01-24T13:58:08.820Z,1556
2018-01-24T13:59:18.545Z,1764
2018-01-24T14:00:28.529Z,1724
2018-01-24T14:01:38.558Z,1680
2018-01-24T14:02:48.541Z,1560
2018-01-24T14:03:57.996Z,1404
2018-01-24T14:05:07.711Z,1240
2018-01-24T14:06:17.696Z,860
2018-01-24T14:07:27.682Z,684
2018-01-24T14:08:37.672Z,512
2018-01-24T14:09:47.657Z,464
2018-01-24T14:10:57.376Z,444
2018-01-24T14:12:06.834Z,424
2018-01-24T14:13:16.563Z,400
2018-01-24T14:14:26.280Z,380
2018-01-24T14:15:36.258Z,420
2018-01-24T14:16:46.283Z,432
2018-01-24T14:17:56.268Z,468
2018-01-24T14:19:05.982Z,476
2018-01-24T14:20:15.703Z,500
2018-01-24T14:21:25.423Z,488
2018-01-24T14:22:34.615Z,492
2018-01-24T14:23:44.066Z,464
2018-01-24T14:24:54.055Z,436
2018-01-24T14:26:03.772Z,388
2018-01-24T14:27:13.224Z,340
2018-01-24T14:28:23.213Z,288
2018-01-24T14:29:33.198Z,248
2018-01-24T14:30:43.190Z,216
2018-01-24T14:31:53.221Z,200
2018-01-24T14:33:02.676Z,196
2018-01-24T14:34:12.667Z,196
2018-01-24T14:35:22.652Z,208
2018-01-24T14:36:32.635Z,212
2018-01-24T14:37:42.619Z,216
2018-01-24T14:38:52.607Z,212
2018-01-24T14:40:02.328Z,212
2018-01-24T14:41:12.053Z,212
2018-01-24T14:42:22.041Z,232
2018-01-24T14:43:32.027Z,260
2018-01-24T14:44:42.015Z,276
2018-01-24T14:45:51.514Z,276
2018-01-24T14:47:01.558Z,240
2018-01-24T14:48:11.370Z,192
2018-01-24T14:49:21.404Z,140
2018-01-24T14:50:31.393Z,108
2018-01-24T14:51:41.387Z,92
2018-01-24T14:52:51.374Z,80
2018-01-24T14:54:00.834Z,68
2018-01-24T14:55:10.296Z,68
2018-01-24T14:56:20.290Z,72
2018-01-24T14:57:30.281Z,76
2018-01-24T14:58:39.472Z,80
2018-01-24T14:59:49.458Z,84
2018-01-24T15:00:58.911Z,76
2018-01-24T15:02:08.434Z,76
2018-01-24T15:03:18.414Z,76
2018-01-24T15:04:28.407Z,72
2018-01-24T15:05:38.402Z,68
2018-01-24T15:06:48.123Z,68
2018-01-24T15:07:57.846Z,64
2018-01-24T15:09:07.563Z,60
2018-01-24T15:10:17.019Z,56
2018-01-24T15:11:27.004Z,52
2018-01-24T15:12:36.727Z,48
2018-01-24T15:13:46.708Z,44
2018-01-24T15:14:56.691Z,40
2018-01-24T15:16:06.683Z,36
2018-01-24T15:17:16.397Z,28
2018-01-24T15:18:25.883Z,28
2018-01-24T15:19:35.922Z,24
2018-01-24T15:20:45.648Z,24
2018-01-24T15:21:55.651Z,20
2018-01-24T15:23:05.655Z,16
2018-01-24T15:24:15.639Z,16
2018-01-24T15:25:25.623Z,16
2018-01-24T15:26:35.618Z,16
2018-01-24T15:27:45.604Z,16
2018-01-24T15:28:55.063Z,12
2018-01-24T15:30:04.521Z,12
2018-01-24T15:31:14.505Z,8
2018-01-24T15:32:24.229Z,12
2018-01-24T15:33:34.214Z,8
2018-01-24T15:34:43.928Z,8
2018-01-24T15:35:53.912Z,8
2018-01-24T15:37:03.903Z,8
2018-01-24T15:38:13.356Z,4
2018-01-24T15:39:23.086Z,8
2018-01-24T15:40:32.860Z,8
2018-01-24T15:41:42.415Z,4
2018-01-24T15:42:52.403Z,4
2018-01-24T15:44:02.135Z,4
2018-01-24T15:45:11.868Z,4
2018-01-24T15:46:21.852Z,0
2018-01-24T15:47:31.838Z,4
2018-01-24T15:48:41.345Z,4
2018-01-24T15:49:51.065Z,4
2018-01-24T15:51:00.782Z,0
2018-01-24T15:52:10.500Z,0
2018-01-24T15:53:20.219Z,0
2018-01-24T15:54:29.940Z,0
2018-01-24T15:55:39.925Z,0
2018-01-24T15:56:49.643Z,0
2018-01-24T15:57:59.363Z,0
2018-01-24T15:59:08.815Z,0
2018-01-24T16:00:18.536Z,0
2018-01-24T16:01:28.313Z,0
2018-01-24T16:02:38.295Z,0
2018-01-24T16:03:48.276Z,0
2018-01-24T16:04:58.267Z,0
2018-01-24T16:06:07.993Z,0
2018-01-24T16:07:17.986Z,0
2018-01-24T16:08:27.971Z,0
2018-01-24T16:09:37.954Z,0
2018-01-24T16:10:47.937Z,0
2018-01-24T16:11:57.916Z,0
2018-01-24T16:13:07.905Z,0
2018-01-24T16:14:17.899Z,0
2018-01-24T16:15:27.881Z,0
2018-01-24T16:16:37.873Z,0
2018-01-24T16:17:47.592Z,0
2018-01-24T16:18:57.044Z,0
2018-01-24T16:20:06.772Z,0
2018-01-24T16:21:16.489Z,0
2018-01-24T16:22:26.569Z,0
2018-01-24T16:23:36.289Z,0
2018-01-24T16:24:46.271Z,0
2018-01-24T16:25:56.251Z,0
2018-01-24T16:27:06.242Z,0
2018-01-24T16:28:15.695Z,0
2018-01-24T16:29:25.414Z,0